createdAt,value
2023-02-16T00:01:20.992Z,100.00
2023-02-16T00:03:47.843Z,100.00
2023-02-16T00:06:16.094Z,100.00
2023-02-16T00:08:47.830Z,100.00
2023-02-16T00:11:54.261Z,100.00
2023-02-16T00:14:23.393Z,100.00
2023-02-16T00:16:50.561Z,100.00
2023-02-16T00:19:17.160Z,100.00
2023-02-16T00:21:43.699Z,100.00
2023-02-16T00:24:10.144Z,100.00
2023-02-16T00:26:36.653Z,100.00
2023-02-16T00:29:03.156Z,100.00
2023-02-16T00:31:34.019Z,100.00
2023-02-16T00:34:24.963Z,100.00
2023-02-16T00:36:53.441Z,100.00
2023-02-16T00:39:24.856Z,100.00
2023-02-16T00:41:54.825Z,100.00
2023-02-16T00:44:40.206Z,100.00
2023-02-16T00:47:39.054Z,100.00
2023-02-16T00:50:28.979Z,100.00
2023-02-16T00:52:58.635Z,100.00
2023-02-16T00:55:31.582Z,100.00
2023-02-16T00:58:24.322Z,100.00
2023-02-16T01:00:56.319Z,100.00
2023-02-16T01:03:26.017Z,100.00
2023-02-16T01:06:12.541Z,100.00
2023-02-16T01:08:57.733Z,100.00
2023-02-16T01:11:25.544Z,100.00
2023-02-16T01:13:53.649Z,100.00
2023-02-16T01:16:36.402Z,100.00
2023-02-16T01:19:03.426Z,100.00
2023-02-16T01:21:29.863Z,100.00
2023-02-16T01:23:56.328Z,100.00
2023-02-16T01:26:22.929Z,100.00
2023-02-16T01:28:49.447Z,100.00
2023-02-16T01:31:16.845Z,100.00
2023-02-16T01:33:43.437Z,100.00
2023-02-16T01:36:34.635Z,100.00
2023-02-16T01:39:02.304Z,100.00
2023-02-16T01:42:06.609Z,100.00
2023-02-16T01:44:41.164Z,100.00
2023-02-16T01:47:36.306Z,100.00
2023-02-16T01:50:16.383Z,100.00
2023-02-16T01:52:44.738Z,100.00
2023-02-16T01:55:43.305Z,100.00
2023-02-16T01:58:12.734Z,100.00
2023-02-16T02:00:49.647Z,100.00
2023-02-16T02:03:41.381Z,100.00
2023-02-16T02:06:18.825Z,100.00
2023-02-16T02:08:54.984Z,100.00
2023-02-16T02:11:30.438Z,100.00
2023-02-16T02:14:06.261Z,100.00
2023-02-16T02:16:34.192Z,100.00
2023-02-16T02:19:01.085Z,100.00
2023-02-16T02:22:17.662Z,100.00
2023-02-16T02:25:18.984Z,100.00
2023-02-16T02:28:21.638Z,100.00
2023-02-16T02:31:30.429Z,100.00
2023-02-16T02:34:17.775Z,100.00
2023-02-16T02:37:17.291Z,100.00
2023-02-16T02:40:02.975Z,100.00
2023-02-16T02:43:13.972Z,100.00
2023-02-16T02:45:49.584Z,100.00
2023-02-16T02:48:16.387Z,100.00
2023-02-16T02:51:07.260Z,100.00
2023-02-16T02:54:12.310Z,100.00
2023-02-16T02:57:18.406Z,100.00
2023-02-16T03:00:13.250Z,100.00
2023-02-16T03:02:41.879Z,100.00
2023-02-16T03:05:12.076Z,100.00
2023-02-16T03:07:48.853Z,100.00
2023-02-16T03:10:37.960Z,100.00
2023-02-16T03:13:07.788Z,100.00
2023-02-16T03:15:36.173Z,100.00
2023-02-16T03:18:23.816Z,100.00
2023-02-16T03:21:09.215Z,100.00
2023-02-16T03:23:55.790Z,100.00
2023-02-16T03:26:41.971Z,100.00
2023-02-16T03:29:24.649Z,100.00
2023-02-16T03:31:53.932Z,100.00
2023-02-16T03:34:21.676Z,100.00
2023-02-16T03:36:59.125Z,100.00
2023-02-16T03:39:27.624Z,100.00
2023-02-16T03:41:56.159Z,100.00
2023-02-16T03:44:22.808Z,100.00
2023-02-16T03:46:49.693Z,100.00
2023-02-16T03:49:17.791Z,100.00
2023-02-16T03:51:44.418Z,100.00
2023-02-16T03:54:11.751Z,100.00
2023-02-16T03:56:38.300Z,100.00
2023-02-16T03:59:04.851Z,100.00
2023-02-16T04:01:31.411Z,100.00
2023-02-16T04:03:57.966Z,100.00
2023-02-16T04:06:24.648Z,100.00
2023-02-16T04:08:51.186Z,100.00
2023-02-16T04:11:36.208Z,100.00
2023-02-16T04:14:03.022Z,100.00
2023-02-16T04:16:29.625Z,100.00
2023-02-16T04:18:56.108Z,100.00
2023-02-16T04:21:22.546Z,100.00
2023-02-16T04:23:49.010Z,100.00
2023-02-16T04:26:15.520Z,100.00
2023-02-16T04:28:42.013Z,100.00
2023-02-16T04:31:09.234Z,100.00
2023-02-16T04:33:35.770Z,100.00
2023-02-16T04:36:02.223Z,100.00
2023-02-16T04:38:28.778Z,100.00
2023-02-16T04:40:55.223Z,100.00
2023-02-16T04:43:21.697Z,100.00
2023-02-16T04:45:48.192Z,100.00
2023-02-16T04:48:14.715Z,100.00
2023-02-16T04:50:41.255Z,100.00
2023-02-16T04:53:07.984Z,100.00
2023-02-16T04:55:34.617Z,100.00
2023-02-16T04:58:01.055Z,100.00
2023-02-16T05:00:27.603Z,100.00
2023-02-16T05:02:54.064Z,100.00
2023-02-16T05:05:20.516Z,100.00
2023-02-16T05:07:47.011Z,100.00
2023-02-16T05:10:13.484Z,100.00
2023-02-16T05:12:58.715Z,100.00
2023-02-16T05:15:25.277Z,100.00
2023-02-16T05:17:51.807Z,100.00
2023-02-16T05:20:18.355Z,100.00
2023-02-16T05:22:46.233Z,100.00
2023-02-16T05:25:12.732Z,100.00
2023-02-16T05:27:39.181Z,100.00
2023-02-16T05:30:07.064Z,100.00
2023-02-16T05:32:33.537Z,100.00
2023-02-16T05:34:59.986Z,100.00
2023-02-16T05:37:26.429Z,100.00
2023-02-16T05:39:52.983Z,100.00
2023-02-16T05:42:19.510Z,100.00
2023-02-16T05:44:45.981Z,100.00
2023-02-16T05:47:12.635Z,100.00
2023-02-16T05:49:39.196Z,100.00
2023-02-16T05:52:05.775Z,100.00
2023-02-16T05:54:32.375Z,100.00
2023-02-16T05:56:58.807Z,100.00
2023-02-16T05:59:25.392Z,100.00
2023-02-16T06:01:52.583Z,100.00
2023-02-16T06:04:20.389Z,100.00
2023-02-16T06:06:47.562Z,100.00
2023-02-16T06:09:14.306Z,100.00
2023-02-16T06:11:40.877Z,100.00
2023-02-16T06:14:09.668Z,100.00
2023-02-16T06:16:37.978Z,100.00
2023-02-16T06:19:05.320Z,100.00
2023-02-16T06:21:32.324Z,100.00
2023-02-16T06:23:59.067Z,100.00
2023-02-16T06:26:26.050Z,100.00
2023-02-16T06:28:52.645Z,100.00
2023-02-16T06:31:19.173Z,100.00
2023-02-16T06:33:45.838Z,100.00
2023-02-16T06:36:12.418Z,100.00
2023-02-16T06:38:38.864Z,100.00
2023-02-16T06:41:06.577Z,100.00
2023-02-16T06:43:33.310Z,100.00
2023-02-16T06:45:59.833Z,100.00
2023-02-16T06:48:26.450Z,100.00
2023-02-16T06:50:53.170Z,100.00
2023-02-16T06:53:20.464Z,100.00
2023-02-16T06:55:49.471Z,100.00
2023-02-16T06:58:15.933Z,100.00
2023-02-16T07:00:42.430Z,100.00
2023-02-16T07:03:08.903Z,100.00
2023-02-16T07:05:35.390Z,100.00
2023-02-16T07:08:01.851Z,100.00
2023-02-16T07:10:37.434Z,100.00
2023-02-16T07:13:14.370Z,100.00
2023-02-16T07:15:40.879Z,100.00
2023-02-16T07:18:07.350Z,100.00
2023-02-16T07:20:33.976Z,100.00
2023-02-16T07:23:00.468Z,100.00
2023-02-16T07:25:26.918Z,100.00
2023-02-16T07:27:57.764Z,100.00
2023-02-16T07:30:24.264Z,100.00
2023-02-16T07:32:50.827Z,100.00
2023-02-16T07:35:17.504Z,100.00
2023-02-16T07:37:43.936Z,100.00
2023-02-16T07:40:10.958Z,100.00
2023-02-16T07:42:37.473Z,100.00
2023-02-16T07:45:04.228Z,100.00
2023-02-16T07:47:30.652Z,100.00
2023-02-16T07:49:57.099Z,100.00
2023-02-16T07:52:25.776Z,100.00
2023-02-16T07:54:52.211Z,100.00
2023-02-16T07:57:18.661Z,100.00
2023-02-16T07:59:46.172Z,100.00
2023-02-16T08:02:17.811Z,100.00
2023-02-16T08:04:44.316Z,100.00
2023-02-16T08:07:15.523Z,100.00
2023-02-16T08:09:42.436Z,100.00
2023-02-16T08:12:13.152Z,100.00
2023-02-16T08:14:39.954Z,100.00
2023-02-16T08:17:07.612Z,100.00
2023-02-16T08:19:34.492Z,100.00
2023-02-16T08:22:02.486Z,100.00
2023-02-16T08:24:29.320Z,100.00
2023-02-16T08:26:56.361Z,100.00
2023-02-16T08:29:23.877Z,100.00
2023-02-16T08:31:51.637Z,100.00
2023-02-16T08:34:20.247Z,100.00
2023-02-16T08:36:51.301Z,100.00
2023-02-16T08:39:20.293Z,100.00
2023-02-16T08:41:49.288Z,100.00
2023-02-16T08:44:18.447Z,100.00
2023-02-16T08:46:47.456Z,100.00
2023-02-16T08:49:17.398Z,100.00
2023-02-16T08:51:48.197Z,100.00
2023-02-16T08:54:17.790Z,100.00
2023-02-16T08:56:47.029Z,100.00
2023-02-16T08:59:18.770Z,100.00
2023-02-16T09:01:45.551Z,100.00
2023-02-16T09:04:12.904Z,100.00
2023-02-16T09:06:41.294Z,100.00
2023-02-16T09:09:08.820Z,100.00
2023-02-16T09:11:36.838Z,100.00
2023-02-16T09:14:04.178Z,100.00
2023-02-16T09:16:35.385Z,100.00
2023-02-16T09:19:02.413Z,100.00
2023-02-16T09:21:33.362Z,100.00
2023-02-16T09:24:03.324Z,100.00
2023-02-16T09:26:36.873Z,100.00
2023-02-16T09:29:03.708Z,100.00
2023-02-16T09:31:32.789Z,100.00
2023-02-16T09:34:05.188Z,100.00
2023-02-16T09:36:32.057Z,100.00
2023-02-16T09:38:59.552Z,100.00
2023-02-16T09:41:57.096Z,100.00
2023-02-16T09:44:39.281Z,100.00
2023-02-16T09:47:22.105Z,100.00
2023-02-16T09:49:49.542Z,100.00
2023-02-16T09:52:36.575Z,100.00
2023-02-16T09:55:16.978Z,100.00
2023-02-16T09:58:03.074Z,100.00
2023-02-16T10:00:43.522Z,100.00
2023-02-16T10:03:19.246Z,100.00
2023-02-16T10:05:56.574Z,100.00
2023-02-16T10:08:31.284Z,100.00
2023-02-16T10:11:29.878Z,100.00
2023-02-16T10:14:04.910Z,100.00
2023-02-16T10:16:41.251Z,100.00
2023-02-16T10:19:20.070Z,100.00
2023-02-16T10:21:51.261Z,100.00
2023-02-16T10:24:18.367Z,100.00
2023-02-16T10:26:54.173Z,100.00
2023-02-16T10:29:22.363Z,100.00
2023-02-16T10:32:08.303Z,100.00
2023-02-16T10:34:34.793Z,100.00
2023-02-16T10:37:11.578Z,100.00
2023-02-16T10:40:00.190Z,100.00
2023-02-16T10:42:35.924Z,100.00
2023-02-16T10:45:39.684Z,100.00
2023-02-16T10:48:06.179Z,96.87
2023-02-16T10:50:43.449Z,91.54
2023-02-16T10:53:18.514Z,82.66
2023-02-16T10:55:45.737Z,81.54
2023-02-16T10:58:22.699Z,84.24
2023-02-16T11:01:08.473Z,89.72
2023-02-16T11:03:44.649Z,86.45
2023-02-16T11:06:17.415Z,87.72
2023-02-16T11:09:01.097Z,88.26
2023-02-16T11:11:30.574Z,89.05
2023-02-16T11:14:01.320Z,91.45
2023-02-16T11:16:29.612Z,90.76
2023-02-16T11:19:01.441Z,83.17
2023-02-16T11:21:44.426Z,78.11
2023-02-16T11:24:23.799Z,76.95
2023-02-16T11:27:04.441Z,73.83
2023-02-16T11:29:31.553Z,77.15
2023-02-16T11:31:59.039Z,68.05
2023-02-16T11:34:35.277Z,60.76
2023-02-16T11:37:06.129Z,59.79
2023-02-16T11:39:38.111Z,59.17
2023-02-16T11:42:18.868Z,59.54
2023-02-16T11:44:52.737Z,57.61
2023-02-16T11:47:22.244Z,58.23
2023-02-16T11:49:51.768Z,56.09
2023-02-16T11:52:27.590Z,56.77
2023-02-16T11:54:57.483Z,54.91
2023-02-16T11:57:31.732Z,57.33
2023-02-16T11:59:59.390Z,56.14
2023-02-16T12:02:28.836Z,54.74
2023-02-16T12:05:14.673Z,53.52
2023-02-16T12:07:54.312Z,54.47
2023-02-16T12:10:35.081Z,51.82
2023-02-16T12:13:17.903Z,48.10
2023-02-16T12:15:59.648Z,50.38
2023-02-16T12:18:36.969Z,49.98
2023-02-16T12:21:19.088Z,48.74
2023-02-16T12:24:18.106Z,50.09
2023-02-16T12:26:51.984Z,49.77
2023-02-16T12:29:41.382Z,48.43
2023-02-16T12:32:22.892Z,49.71
2023-02-16T12:34:52.293Z,50.13
2023-02-16T12:37:30.781Z,50.35
2023-02-16T12:40:20.609Z,49.46
2023-02-16T12:43:13.367Z,48.81
2023-02-16T12:45:43.962Z,48.51
2023-02-16T12:48:37.362Z,50.68
2023-02-16T12:51:10.193Z,48.56
2023-02-16T12:53:57.814Z,49.59
2023-02-16T12:56:33.398Z,49.81
2023-02-16T12:59:39.253Z,50.05
2023-02-16T13:02:15.845Z,47.57
2023-02-16T13:05:08.637Z,48.28
2023-02-16T13:07:52.587Z,47.99
2023-02-16T13:10:27.043Z,48.67
2023-02-16T13:13:04.275Z,49.66
2023-02-16T13:15:30.705Z,47.39
2023-02-16T13:18:02.213Z,45.94
2023-02-16T13:20:29.056Z,47.78
2023-02-16T13:23:17.000Z,48.85
2023-02-16T13:26:21.189Z,46.03
2023-02-16T13:29:17.366Z,45.26
2023-02-16T13:32:14.785Z,46.05
2023-02-16T13:35:20.009Z,46.92
2023-02-16T13:38:06.568Z,47.46
2023-02-16T13:40:43.494Z,47.46
2023-02-16T13:43:28.752Z,48.21
2023-02-16T13:45:56.613Z,45.73
2023-02-16T13:48:37.517Z,48.02
2023-02-16T13:51:25.648Z,46.50
2023-02-16T13:54:01.764Z,47.10
2023-02-16T13:56:37.874Z,47.15
2023-02-16T13:59:17.221Z,47.41
2023-02-16T14:01:45.026Z,49.47
2023-02-16T14:04:23.367Z,47.26
2023-02-16T14:07:13.291Z,47.37
2023-02-16T14:09:39.840Z,48.18
2023-02-16T14:12:09.116Z,47.53
2023-02-16T14:14:41.540Z,44.97
2023-02-16T14:17:21.536Z,47.32
2023-02-16T14:20:04.860Z,48.19
2023-02-16T14:22:31.293Z,48.36
2023-02-16T14:25:01.116Z,48.47
2023-02-16T14:27:51.424Z,47.73
2023-02-16T14:30:36.260Z,46.24
2023-02-16T14:33:17.946Z,46.93
2023-02-16T14:35:59.581Z,45.98
2023-02-16T14:38:30.465Z,45.46
2023-02-16T14:40:58.127Z,45.76
2023-02-16T14:43:41.577Z,45.63
2023-02-16T14:46:08.274Z,43.95
2023-02-16T14:49:00.417Z,45.50
2023-02-16T14:51:51.995Z,43.75
2023-02-16T14:54:24.471Z,46.03
2023-02-16T14:57:02.557Z,46.01
2023-02-16T14:59:44.667Z,46.44
2023-02-16T15:02:32.185Z,45.81
2023-02-16T15:04:58.647Z,45.96
2023-02-16T15:07:28.667Z,47.18
2023-02-16T15:09:58.047Z,45.77
2023-02-16T15:12:38.935Z,46.63
2023-02-16T15:15:10.088Z,47.17
2023-02-16T15:17:45.063Z,46.13
2023-02-16T15:20:31.419Z,45.87
2023-02-16T15:23:04.627Z,46.70
2023-02-16T15:25:39.028Z,47.34
2023-02-16T15:28:11.396Z,47.72
2023-02-16T15:30:42.300Z,47.56
2023-02-16T15:33:24.042Z,47.98
2023-02-16T15:36:00.433Z,47.63
2023-02-16T15:38:32.752Z,47.82
2023-02-16T15:41:02.771Z,46.40
2023-02-16T15:43:39.845Z,46.60
2023-02-16T15:46:14.132Z,46.49
2023-02-16T15:48:40.996Z,46.69
2023-02-16T15:51:25.102Z,46.97
2023-02-16T15:54:03.538Z,46.44
2023-02-16T15:56:36.012Z,46.97
2023-02-16T15:59:21.272Z,47.51
2023-02-16T16:01:48.319Z,46.92
2023-02-16T16:04:24.337Z,46.37
2023-02-16T16:06:52.116Z,46.49
2023-02-16T16:09:33.069Z,46.50
2023-02-16T16:12:12.214Z,46.75
2023-02-16T16:14:50.923Z,46.86
2023-02-16T16:17:23.552Z,48.43
2023-02-16T16:19:51.487Z,47.92
2023-02-16T16:22:29.140Z,48.96
2023-02-16T16:24:55.867Z,48.79
2023-02-16T16:27:36.643Z,49.38
2023-02-16T16:30:20.961Z,49.86
2023-02-16T16:32:48.004Z,50.45
2023-02-16T16:35:22.909Z,50.75
2023-02-16T16:37:52.408Z,51.43
2023-02-16T16:40:18.843Z,51.57
2023-02-16T16:43:03.703Z,52.20
2023-02-16T16:45:42.396Z,52.48
2023-02-16T16:48:14.033Z,52.59
2023-02-16T16:50:41.048Z,53.56
2023-02-16T16:53:29.943Z,55.16
2023-02-16T16:55:57.352Z,56.10
2023-02-16T16:58:23.794Z,55.51
2023-02-16T17:00:50.678Z,57.20
2023-02-16T17:03:18.313Z,57.45
2023-02-16T17:05:45.655Z,57.67
2023-02-16T17:08:12.479Z,56.68
2023-02-16T17:10:41.300Z,57.92
2023-02-16T17:13:13.337Z,58.75
2023-02-16T17:15:48.861Z,60.32
2023-02-16T17:18:19.254Z,61.41
2023-02-16T17:20:48.141Z,60.47
2023-02-16T17:23:19.126Z,61.61
2023-02-16T17:25:46.774Z,62.40
2023-02-16T17:28:15.583Z,65.77
2023-02-16T17:30:43.066Z,67.09
2023-02-16T17:33:10.861Z,69.13
2023-02-16T17:35:40.263Z,70.50
2023-02-16T17:38:11.952Z,68.71
2023-02-16T17:40:39.744Z,66.03
2023-02-16T17:43:14.284Z,64.33
2023-02-16T17:45:41.982Z,63.42
2023-02-16T17:48:25.194Z,66.28
2023-02-16T17:50:52.140Z,66.06
2023-02-16T17:53:20.990Z,65.74
2023-02-16T17:55:49.442Z,64.82
2023-02-16T17:58:16.267Z,63.54
2023-02-16T18:00:44.104Z,62.06
2023-02-16T18:03:10.941Z,61.78
2023-02-16T18:05:38.431Z,61.53
2023-02-16T18:08:05.264Z,60.29
2023-02-16T18:10:42.483Z,61.77
2023-02-16T18:13:11.421Z,60.00
2023-02-16T18:15:39.785Z,61.97
2023-02-16T18:18:06.491Z,59.37
2023-02-16T18:20:33.326Z,59.19
2023-02-16T18:22:59.978Z,57.95
2023-02-16T18:25:26.532Z,57.70
2023-02-16T18:27:53.170Z,57.61
2023-02-16T18:30:20.117Z,58.75
2023-02-16T18:32:46.553Z,57.68
2023-02-16T18:35:13.744Z,57.58
2023-02-16T18:37:40.705Z,57.03
2023-02-16T18:40:09.082Z,58.67
2023-02-16T18:42:36.131Z,57.29
2023-02-16T18:45:03.509Z,57.00
2023-02-16T18:47:30.624Z,56.12
2023-02-16T18:49:57.032Z,57.21
2023-02-16T18:52:23.871Z,56.71
2023-02-16T18:54:50.308Z,56.41
2023-02-16T18:57:17.236Z,56.88
2023-02-16T18:59:44.096Z,57.72
2023-02-16T19:02:11.920Z,58.58
2023-02-16T19:04:38.766Z,57.62
2023-02-16T19:07:05.354Z,57.15
2023-02-16T19:09:31.773Z,59.23
2023-02-16T19:11:58.188Z,59.71
2023-02-16T19:14:24.928Z,59.20
2023-02-16T19:16:53.678Z,59.69
2023-02-16T19:19:20.106Z,59.44
2023-02-16T19:21:46.588Z,59.46
2023-02-16T19:24:13.256Z,60.80
2023-02-16T19:26:40.847Z,59.59
2023-02-16T19:29:07.322Z,59.54
2023-02-16T19:31:35.305Z,59.13
2023-02-16T19:34:02.275Z,59.61
2023-02-16T19:36:30.523Z,60.42
2023-02-16T19:38:57.331Z,60.00
2023-02-16T19:41:26.891Z,60.22
2023-02-16T19:43:53.412Z,61.77
2023-02-16T19:46:20.289Z,61.92
2023-02-16T19:48:47.156Z,60.24
2023-02-16T19:51:14.285Z,60.17
2023-02-16T19:53:41.808Z,59.74
2023-02-16T19:56:11.518Z,60.10
2023-02-16T19:58:38.453Z,61.04
2023-02-16T20:01:18.037Z,61.34
2023-02-16T20:03:46.034Z,60.73
2023-02-16T20:06:19.579Z,60.36
2023-02-16T20:08:47.354Z,60.00
2023-02-16T20:11:15.505Z,59.57
2023-02-16T20:13:42.550Z,59.93
2023-02-16T20:16:10.130Z,60.04
2023-02-16T20:18:37.031Z,60.81
2023-02-16T20:21:07.017Z,60.91
2023-02-16T20:23:37.362Z,60.68
2023-02-16T20:26:20.445Z,60.86
2023-02-16T20:28:48.572Z,60.36
2023-02-16T20:31:16.990Z,60.77
2023-02-16T20:33:43.479Z,60.50
2023-02-16T20:36:10.750Z,60.74
2023-02-16T20:38:37.875Z,60.10
2023-02-16T20:41:05.067Z,60.19
2023-02-16T20:43:32.135Z,62.09
2023-02-16T20:45:58.663Z,61.70
2023-02-16T20:48:25.993Z,61.15
2023-02-16T20:50:57.218Z,61.81
2023-02-16T20:53:23.838Z,62.20
2023-02-16T20:55:50.868Z,63.03
2023-02-16T20:58:18.377Z,65.25
2023-02-16T21:00:45.078Z,63.30
2023-02-16T21:03:11.524Z,63.48
2023-02-16T21:05:38.044Z,64.39
2023-02-16T21:08:04.612Z,64.37
2023-02-16T21:10:31.172Z,65.55
2023-02-16T21:12:57.827Z,63.88
2023-02-16T21:15:24.388Z,64.04
2023-02-16T21:17:50.819Z,63.66
2023-02-16T21:20:17.352Z,64.00
2023-02-16T21:22:44.428Z,64.63
2023-02-16T21:25:11.144Z,64.55
2023-02-16T21:27:37.607Z,64.67
2023-02-16T21:30:05.326Z,65.41
2023-02-16T21:32:32.165Z,65.65
2023-02-16T21:34:58.640Z,67.91
2023-02-16T21:37:25.064Z,66.72
2023-02-16T21:40:30.100Z,65.62
2023-02-16T21:42:57.516Z,65.53
2023-02-16T21:45:24.235Z,65.54
2023-02-16T21:48:09.444Z,65.88
2023-02-16T21:50:39.318Z,66.20
2023-02-16T21:53:07.148Z,65.54
2023-02-16T21:55:55.328Z,65.01
2023-02-16T21:58:22.115Z,65.21
2023-02-16T22:00:51.610Z,64.95
2023-02-16T22:03:18.515Z,65.40
2023-02-16T22:05:45.084Z,65.05
2023-02-16T22:08:14.343Z,65.77
2023-02-16T22:10:41.029Z,65.94
2023-02-16T22:13:07.446Z,66.21
2023-02-16T22:15:36.688Z,66.40
2023-02-16T22:18:07.200Z,66.58
2023-02-16T22:20:34.159Z,66.53
2023-02-16T22:23:00.586Z,66.46
2023-02-16T22:25:27.086Z,66.84
2023-02-16T22:27:53.498Z,67.02
2023-02-16T22:30:20.081Z,66.07
2023-02-16T22:32:46.545Z,65.94
2023-02-16T22:35:13.049Z,65.22
2023-02-16T22:37:39.517Z,65.12
2023-02-16T22:40:06.484Z,65.23
2023-02-16T22:42:32.973Z,64.91
2023-02-16T22:44:59.380Z,64.90
2023-02-16T22:47:25.953Z,64.37
2023-02-16T22:49:52.356Z,65.69
2023-02-16T22:52:18.912Z,65.04
2023-02-16T22:54:45.392Z,65.48
2023-02-16T22:57:11.841Z,65.50
2023-02-16T22:59:38.325Z,64.68
2023-02-16T23:02:04.822Z,63.87
2023-02-16T23:04:31.266Z,63.11
2023-02-16T23:06:57.703Z,64.19
2023-02-16T23:09:24.205Z,63.18
2023-02-16T23:11:50.829Z,63.27
2023-02-16T23:14:18.992Z,62.01
2023-02-16T23:16:51.576Z,61.65
2023-02-16T23:19:21.314Z,62.09
2023-02-16T23:21:48.785Z,62.02
2023-02-16T23:24:18.607Z,61.00
2023-02-16T23:26:46.105Z,60.18
2023-02-16T23:29:12.595Z,60.80
2023-02-16T23:31:40.828Z,60.95
2023-02-16T23:34:08.282Z,61.01
2023-02-16T23:36:36.737Z,60.39
2023-02-16T23:39:07.693Z,60.44
2023-02-16T23:41:34.629Z,60.40
2023-02-16T23:44:01.438Z,61.13
2023-02-16T23:46:28.194Z,62.06
2023-02-16T23:48:54.783Z,61.76
2023-02-16T23:51:21.244Z,61.59
2023-02-16T23:53:48.312Z,60.58
2023-02-16T23:56:18.619Z,61.97
2023-02-16T23:58:45.576Z,61.74
